sensor_id;sensor_type;location;lat;lon;timestamp;P1;durP1;ratioP1;P2;durP2;ratioP2
5696;SDS011;2873;50.966;7.210;2024-02-26T00:01:42;1.00;;;0.70;;
5696;SDS011;2873;50.966;7.210;2024-02-26T00:04:08;1.88;;;0.90;;
5696;SDS011;2873;50.966;7.210;2024-02-26T00:06:34;0.80;;;0.80;;
5696;SDS011;2873;50.966;7.210;2024-02-26T00:09:00;1.50;;;1.00;;
5696;SDS011;2873;50.966;7.210;2024-02-26T00:11:27;0.67;;;0.67;;
5696;SDS011;2873;50.966;7.210;2024-02-26T00:13:53;1.10;;;0.73;;
5696;SDS011;2873;50.966;7.210;2024-02-26T00:16:18;1.60;;;0.70;;
5696;SDS011;2873;50.966;7.210;2024-02-26T00:18:44;1.00;;;0.87;;
5696;SDS011;2873;50.966;7.210;2024-02-26T00:21:09;0.90;;;0.90;;
5696;SDS011;2873;50.966;7.210;2024-02-26T00:23:35;1.40;;;0.80;;
5696;SDS011;2873;50.966;7.210;2024-02-26T00:26:00;0.80;;;0.80;;
5696;SDS011;2873;50.966;7.210;2024-02-26T00:28:26;0.90;;;0.80;;
5696;SDS011;2873;50.966;7.210;2024-02-26T00:30:54;0.80;;;0.80;;
5696;SDS011;2873;50.966;7.210;2024-02-26T00:33:21;0.90;;;0.90;;
5696;SDS011;2873;50.966;7.210;2024-02-26T00:35:47;1.00;;;0.90;;
5696;SDS011;2873;50.966;7.210;2024-02-26T00:38:13;0.50;;;0.50;;
5696;SDS011;2873;50.966;7.210;2024-02-26T00:40:39;1.00;;;0.60;;
5696;SDS011;2873;50.966;7.210;2024-02-26T00:43:08;1.20;;;1.00;;
5696;SDS011;2873;50.966;7.210;2024-02-26T00:45:33;1.70;;;0.70;;
5696;SDS011;2873;50.966;7.210;2024-02-26T00:47:59;1.70;;;0.77;;
5696;SDS011;2873;50.966;7.210;2024-02-26T00:50:33;1.20;;;0.70;;
5696;SDS011;2873;50.966;7.210;2024-02-26T00:52:59;0.80;;;0.80;;
5696;SDS011;2873;50.966;7.210;2024-02-26T00:55:25;1.80;;;0.80;;
5696;SDS011;2873;50.966;7.210;2024-02-26T00:57:51;0.60;;;0.60;;
5696;SDS011;2873;50.966;7.210;2024-02-26T01:00:17;0.93;;;0.93;;
5696;SDS011;2873;50.966;7.210;2024-02-26T01:02:42;1.00;;;0.90;;
5696;SDS011;2873;50.966;7.210;2024-02-26T01:05:11;0.90;;;0.80;;
5696;SDS011;2873;50.966;7.210;2024-02-26T01:07:37;1.17;;;0.80;;
5696;SDS011;2873;50.966;7.210;2024-02-26T01:10:04;2.53;;;0.82;;
5696;SDS011;2873;50.966;7.210;2024-02-26T01:12:33;1.10;;;1.00;;
5696;SDS011;2873;50.966;7.210;2024-02-26T01:15:00;2.72;;;0.90;;
5696;SDS011;2873;50.966;7.210;2024-02-26T01:17:29;1.00;;;0.90;;
5696;SDS011;2873;50.966;7.210;2024-02-26T01:19:55;2.60;;;1.00;;
5696;SDS011;2873;50.966;7.210;2024-02-26T01:22:20;1.20;;;0.90;;
5696;SDS011;2873;50.966;7.210;2024-02-26T01:24:46;0.70;;;0.70;;
5696;SDS011;2873;50.966;7.210;2024-02-26T01:27:11;2.33;;;0.87;;
5696;SDS011;2873;50.966;7.210;2024-02-26T01:29:37;2.10;;;0.90;;
5696;SDS011;2873;50.966;7.210;2024-02-26T01:32:03;0.60;;;0.60;;
5696;SDS011;2873;50.966;7.210;2024-02-26T01:34:30;1.50;;;0.93;;
5696;SDS011;2873;50.966;7.210;2024-02-26T01:36:56;1.40;;;0.73;;
5696;SDS011;2873;50.966;7.210;2024-02-26T01:39:21;0.70;;;0.70;;
5696;SDS011;2873;50.966;7.210;2024-02-26T01:41:47;0.73;;;0.70;;
5696;SDS011;2873;50.966;7.210;2024-02-26T01:44:13;0.80;;;0.70;;
5696;SDS011;2873;50.966;7.210;2024-02-26T01:46:38;1.90;;;0.80;;
5696;SDS011;2873;50.966;7.210;2024-02-26T01:49:05;1.00;;;0.90;;
5696;SDS011;2873;50.966;7.210;2024-02-26T01:51:32;0.80;;;0.70;;
5696;SDS011;2873;50.966;7.210;2024-02-26T01:53:58;0.70;;;0.70;;
5696;SDS011;2873;50.966;7.210;2024-02-26T01:56:26;0.60;;;0.60;;
5696;SDS011;2873;50.966;7.210;2024-02-26T01:58:55;1.20;;;0.90;;
5696;SDS011;2873;50.966;7.210;2024-02-26T02:01:21;1.10;;;0.90;;
5696;SDS011;2873;50.966;7.210;2024-02-26T02:03:50;1.40;;;0.80;;
5696;SDS011;2873;50.966;7.210;2024-02-26T02:06:16;0.63;;;0.63;;
5696;SDS011;2873;50.966;7.210;2024-02-26T02:08:42;0.60;;;0.60;;
5696;SDS011;2873;50.966;7.210;2024-02-26T02:11:07;0.60;;;0.60;;
5696;SDS011;2873;50.966;7.210;2024-02-26T02:13:36;1.43;;;0.80;;
5696;SDS011;2873;50.966;7.210;2024-02-26T02:16:02;0.80;;;0.60;;
5696;SDS011;2873;50.966;7.210;2024-02-26T02:18:28;0.80;;;0.80;;
5696;SDS011;2873;50.966;7.210;2024-02-26T02:20:54;2.80;;;0.60;;
5696;SDS011;2873;50.966;7.210;2024-02-26T02:23:21;4.20;;;0.70;;
5696;SDS011;2873;50.966;7.210;2024-02-26T02:25:46;1.03;;;0.90;;
5696;SDS011;2873;50.966;7.210;2024-02-26T02:28:12;1.00;;;0.80;;
5696;SDS011;2873;50.966;7.210;2024-02-26T02:30:38;0.70;;;0.70;;
5696;SDS011;2873;50.966;7.210;2024-02-26T02:33:04;0.70;;;0.70;;
5696;SDS011;2873;50.966;7.210;2024-02-26T02:35:30;0.90;;;0.70;;
5696;SDS011;2873;50.966;7.210;2024-02-26T02:37:56;1.40;;;0.60;;
5696;SDS011;2873;50.966;7.210;2024-02-26T02:40:22;0.60;;;0.60;;
5696;SDS011;2873;50.966;7.210;2024-02-26T02:42:48;0.70;;;0.70;;
5696;SDS011;2873;50.966;7.210;2024-02-26T02:45:13;1.73;;;0.50;;
5696;SDS011;2873;50.966;7.210;2024-02-26T02:47:39;0.70;;;0.70;;
5696;SDS011;2873;50.966;7.210;2024-02-26T02:50:04;0.70;;;0.70;;
5696;SDS011;2873;50.966;7.210;2024-02-26T02:52:30;0.60;;;0.60;;
5696;SDS011;2873;50.966;7.210;2024-02-26T02:54:56;0.60;;;0.50;;
5696;SDS011;2873;50.966;7.210;2024-02-26T02:57:21;1.20;;;0.53;;
5696;SDS011;2873;50.966;7.210;2024-02-26T02:59:47;0.80;;;0.80;;
5696;SDS011;2873;50.966;7.210;2024-02-26T03:02:12;0.80;;;0.70;;
5696;SDS011;2873;50.966;7.210;2024-02-26T03:04:38;1.10;;;0.80;;
5696;SDS011;2873;50.966;7.210;2024-02-26T03:07:04;0.60;;;0.60;;
5696;SDS011;2873;50.966;7.210;2024-02-26T03:09:29;0.70;;;0.70;;
5696;SDS011;2873;50.966;7.210;2024-02-26T03:11:55;0.60;;;0.60;;
5696;SDS011;2873;50.966;7.210;2024-02-26T03:14:20;0.70;;;0.70;;
5696;SDS011;2873;50.966;7.210;2024-02-26T03:16:46;0.80;;;0.80;;
5696;SDS011;2873;50.966;7.210;2024-02-26T03:19:14;0.82;;;0.75;;
5696;SDS011;2873;50.966;7.210;2024-02-26T03:21:41;0.90;;;0.70;;
5696;SDS011;2873;50.966;7.210;2024-02-26T03:24:07;0.80;;;0.68;;
5696;SDS011;2873;50.966;7.210;2024-02-26T03:26:35;0.50;;;0.50;;
5696;SDS011;2873;50.966;7.210;2024-02-26T03:29:01;1.00;;;0.90;;
5696;SDS011;2873;50.966;7.210;2024-02-26T03:31:27;0.70;;;0.70;;
5696;SDS011;2873;50.966;7.210;2024-02-26T03:33:53;1.90;;;0.80;;
5696;SDS011;2873;50.966;7.210;2024-02-26T03:36:19;0.60;;;0.50;;
5696;SDS011;2873;50.966;7.210;2024-02-26T03:38:45;1.00;;;0.70;;
5696;SDS011;2873;50.966;7.210;2024-02-26T03:41:10;1.40;;;0.80;;
5696;SDS011;2873;50.966;7.210;2024-02-26T03:43:36;0.87;;;0.77;;
5696;SDS011;2873;50.966;7.210;2024-02-26T03:46:01;0.70;;;0.70;;
5696;SDS011;2873;50.966;7.210;2024-02-26T03:48:27;1.20;;;0.63;;
5696;SDS011;2873;50.966;7.210;2024-02-26T03:50:52;1.20;;;0.90;;
5696;SDS011;2873;50.966;7.210;2024-02-26T03:53:18;1.17;;;0.75;;
5696;SDS011;2873;50.966;7.210;2024-02-26T03:55:43;0.70;;;0.70;;
5696;SDS011;2873;50.966;7.210;2024-02-26T03:58:09;2.17;;;1.00;;
5696;SDS011;2873;50.966;7.210;2024-02-26T04:00:37;0.73;;;0.70;;
5696;SDS011;2873;50.966;7.210;2024-02-26T04:03:02;0.70;;;0.70;;
5696;SDS011;2873;50.966;7.210;2024-02-26T04:05:28;2.20;;;0.90;;
5696;SDS011;2873;50.966;7.210;2024-02-26T04:07:53;0.80;;;0.80;;
5696;SDS011;2873;50.966;7.210;2024-02-26T04:10:19;1.93;;;0.90;;
5696;SDS011;2873;50.966;7.210;2024-02-26T04:12:44;1.35;;;0.70;;
5696;SDS011;2873;50.966;7.210;2024-02-26T04:15:10;0.63;;;0.63;;
5696;SDS011;2873;50.966;7.210;2024-02-26T04:17:36;0.80;;;0.80;;
5696;SDS011;2873;50.966;7.210;2024-02-26T04:20:03;0.70;;;0.70;;
5696;SDS011;2873;50.966;7.210;2024-02-26T04:22:30;2.30;;;0.80;;
5696;SDS011;2873;50.966;7.210;2024-02-26T04:24:57;0.90;;;0.80;;
5696;SDS011;2873;50.966;7.210;2024-02-26T04:27:23;3.08;;;0.80;;
5696;SDS011;2873;50.966;7.210;2024-02-26T04:29:48;1.10;;;0.90;;
5696;SDS011;2873;50.966;7.210;2024-02-26T04:32:14;1.17;;;0.77;;
5696;SDS011;2873;50.966;7.210;2024-02-26T04:34:39;0.60;;;0.60;;
5696;SDS011;2873;50.966;7.210;2024-02-26T04:37:05;0.80;;;0.80;;
5696;SDS011;2873;50.966;7.210;2024-02-26T04:39:31;0.80;;;0.80;;
5696;SDS011;2873;50.966;7.210;2024-02-26T04:41:56;2.70;;;0.80;;
5696;SDS011;2873;50.966;7.210;2024-02-26T04:44:22;1.20;;;0.90;;
5696;SDS011;2873;50.966;7.210;2024-02-26T04:46:47;0.80;;;0.80;;
5696;SDS011;2873;50.966;7.210;2024-02-26T04:49:13;1.00;;;0.97;;
5696;SDS011;2873;50.966;7.210;2024-02-26T04:51:38;2.30;;;0.70;;
5696;SDS011;2873;50.966;7.210;2024-02-26T04:54:04;0.83;;;0.83;;
5696;SDS011;2873;50.966;7.210;2024-02-26T04:56:29;1.00;;;0.80;;
5696;SDS011;2873;50.966;7.210;2024-02-26T04:58:55;0.70;;;0.70;;
5696;SDS011;2873;50.966;7.210;2024-02-26T05:01:21;0.80;;;0.80;;
5696;SDS011;2873;50.966;7.210;2024-02-26T05:03:46;1.80;;;0.77;;
5696;SDS011;2873;50.966;7.210;2024-02-26T05:06:12;1.00;;;1.00;;
5696;SDS011;2873;50.966;7.210;2024-02-26T05:08:38;3.23;;;0.80;;
5696;SDS011;2873;50.966;7.210;2024-02-26T05:11:03;0.70;;;0.70;;
5696;SDS011;2873;50.966;7.210;2024-02-26T05:13:30;0.80;;;0.80;;
5696;SDS011;2873;50.966;7.210;2024-02-26T05:15:56;0.90;;;0.80;;
5696;SDS011;2873;50.966;7.210;2024-02-26T05:18:21;1.02;;;0.90;;
5696;SDS011;2873;50.966;7.210;2024-02-26T05:20:47;1.50;;;0.90;;
5696;SDS011;2873;50.966;7.210;2024-02-26T05:23:12;2.40;;;1.02;;
5696;SDS011;2873;50.966;7.210;2024-02-26T05:25:38;1.80;;;1.00;;
5696;SDS011;2873;50.966;7.210;2024-02-26T05:28:04;1.00;;;1.00;;
5696;SDS011;2873;50.966;7.210;2024-02-26T05:30:29;3.40;;;1.20;;
5696;SDS011;2873;50.966;7.210;2024-02-26T05:32:55;1.10;;;1.10;;
5696;SDS011;2873;50.966;7.210;2024-02-26T05:35:20;0.80;;;0.80;;
5696;SDS011;2873;50.966;7.210;2024-02-26T05:37:46;1.00;;;1.00;;
5696;SDS011;2873;50.966;7.210;2024-02-26T05:40:11;2.00;;;1.10;;
5696;SDS011;2873;50.966;7.210;2024-02-26T05:42:37;1.00;;;1.00;;
5696;SDS011;2873;50.966;7.210;2024-02-26T05:45:03;1.13;;;1.00;;
5696;SDS011;2873;50.966;7.210;2024-02-26T05:47:32;2.20;;;1.30;;
5696;SDS011;2873;50.966;7.210;2024-02-26T05:49:58;1.02;;;0.90;;
5696;SDS011;2873;50.966;7.210;2024-02-26T05:52:25;1.60;;;1.20;;
5696;SDS011;2873;50.966;7.210;2024-02-26T05:54:51;1.58;;;1.10;;
5696;SDS011;2873;50.966;7.210;2024-02-26T05:57:17;2.67;;;1.10;;
5696;SDS011;2873;50.966;7.210;2024-02-26T05:59:43;1.10;;;1.00;;
5696;SDS011;2873;50.966;7.210;2024-02-26T06:02:09;1.00;;;1.00;;
5696;SDS011;2873;50.966;7.210;2024-02-26T06:04:34;1.70;;;1.20;;
5696;SDS011;2873;50.966;7.210;2024-02-26T06:07:00;1.20;;;1.20;;
5696;SDS011;2873;50.966;7.210;2024-02-26T06:09:26;2.20;;;1.30;;
5696;SDS011;2873;50.966;7.210;2024-02-26T06:11:51;2.90;;;1.03;;
5696;SDS011;2873;50.966;7.210;2024-02-26T06:14:17;1.40;;;1.30;;
5696;SDS011;2873;50.966;7.210;2024-02-26T06:16:43;2.42;;;1.50;;
5696;SDS011;2873;50.966;7.210;2024-02-26T06:19:09;1.42;;;1.33;;
5696;SDS011;2873;50.966;7.210;2024-02-26T06:21:34;3.60;;;1.40;;
5696;SDS011;2873;50.966;7.210;2024-02-26T06:24:00;1.43;;;1.33;;
5696;SDS011;2873;50.966;7.210;2024-02-26T06:26:26;2.78;;;1.50;;
5696;SDS011;2873;50.966;7.210;2024-02-26T06:28:53;1.20;;;1.20;;
5696;SDS011;2873;50.966;7.210;2024-02-26T06:31:19;1.25;;;1.15;;
5696;SDS011;2873;50.966;7.210;2024-02-26T06:33:47;1.30;;;1.20;;
5696;SDS011;2873;50.966;7.210;2024-02-26T06:36:13;1.38;;;1.27;;
5696;SDS011;2873;50.966;7.210;2024-02-26T06:38:40;1.50;;;1.40;;
5696;SDS011;2873;50.966;7.210;2024-02-26T06:41:06;1.80;;;1.33;;
5696;SDS011;2873;50.966;7.210;2024-02-26T06:43:31;2.07;;;1.57;;
5696;SDS011;2873;50.966;7.210;2024-02-26T06:45:57;1.70;;;1.60;;
5696;SDS011;2873;50.966;7.210;2024-02-26T06:48:23;2.90;;;1.40;;
5696;SDS011;2873;50.966;7.210;2024-02-26T06:50:49;1.20;;;1.10;;
5696;SDS011;2873;50.966;7.210;2024-02-26T06:53:14;3.10;;;1.30;;
5696;SDS011;2873;50.966;7.210;2024-02-26T06:55:41;1.60;;;1.50;;
5696;SDS011;2873;50.966;7.210;2024-02-26T06:58:07;1.20;;;1.10;;
5696;SDS011;2873;50.966;7.210;2024-02-26T07:00:33;1.15;;;1.15;;
5696;SDS011;2873;50.966;7.210;2024-02-26T07:02:58;1.13;;;1.13;;
5696;SDS011;2873;50.966;7.210;2024-02-26T07:05:24;1.40;;;1.30;;
5696;SDS011;2873;50.966;7.210;2024-02-26T07:07:49;1.17;;;1.17;;
5696;SDS011;2873;50.966;7.210;2024-02-26T07:10:15;1.03;;;1.03;;
5696;SDS011;2873;50.966;7.210;2024-02-26T07:12:40;1.40;;;1.30;;
5696;SDS011;2873;50.966;7.210;2024-02-26T07:15:06;1.50;;;1.40;;
5696;SDS011;2873;50.966;7.210;2024-02-26T07:17:33;2.70;;;1.70;;
5696;SDS011;2873;50.966;7.210;2024-02-26T07:19:59;1.70;;;1.60;;
5696;SDS011;2873;50.966;7.210;2024-02-26T07:22:24;1.77;;;1.57;;
5696;SDS011;2873;50.966;7.210;2024-02-26T07:24:50;1.60;;;1.50;;
5696;SDS011;2873;50.966;7.210;2024-02-26T07:27:16;2.42;;;1.60;;
5696;SDS011;2873;50.966;7.210;2024-02-26T07:29:43;1.63;;;1.55;;
5696;SDS011;2873;50.966;7.210;2024-02-26T07:32:09;3.30;;;1.40;;
5696;SDS011;2873;50.966;7.210;2024-02-26T07:34:35;1.10;;;1.10;;
5696;SDS011;2873;50.966;7.210;2024-02-26T07:37:02;1.60;;;1.40;;
5696;SDS011;2873;50.966;7.210;2024-02-26T07:39:28;1.73;;;1.40;;
5696;SDS011;2873;50.966;7.210;2024-02-26T07:41:53;1.40;;;1.30;;
5696;SDS011;2873;50.966;7.210;2024-02-26T07:44:19;1.70;;;1.40;;
5696;SDS011;2873;50.966;7.210;2024-02-26T07:46:45;2.90;;;1.50;;
5696;SDS011;2873;50.966;7.210;2024-02-26T07:49:10;1.53;;;1.43;;
5696;SDS011;2873;50.966;7.210;2024-02-26T07:51:36;1.80;;;1.40;;
5696;SDS011;2873;50.966;7.210;2024-02-26T07:54:01;1.50;;;1.40;;
5696;SDS011;2873;50.966;7.210;2024-02-26T07:56:27;2.13;;;1.50;;
5696;SDS011;2873;50.966;7.210;2024-02-26T07:58:52;1.53;;;1.43;;
5696;SDS011;2873;50.966;7.210;2024-02-26T08:01:18;1.40;;;1.30;;
5696;SDS011;2873;50.966;7.210;2024-02-26T08:03:44;1.80;;;1.57;;
5696;SDS011;2873;50.966;7.210;2024-02-26T08:06:09;1.70;;;1.60;;
5696;SDS011;2873;50.966;7.210;2024-02-26T08:08:35;1.87;;;1.73;;
5696;SDS011;2873;50.966;7.210;2024-02-26T08:11:00;1.70;;;1.60;;
5696;SDS011;2873;50.966;7.210;2024-02-26T08:13:26;1.60;;;1.50;;
5696;SDS011;2873;50.966;7.210;2024-02-26T08:15:52;1.57;;;1.23;;
5696;SDS011;2873;50.966;7.210;2024-02-26T08:18:18;2.33;;;1.40;;
5696;SDS011;2873;50.966;7.210;2024-02-26T08:20:44;1.70;;;1.60;;
5696;SDS011;2873;50.966;7.210;2024-02-26T08:23:09;2.80;;;2.60;;
5696;SDS011;2873;50.966;7.210;2024-02-26T08:25:35;1.70;;;1.60;;
5696;SDS011;2873;50.966;7.210;2024-02-26T08:28:01;1.77;;;1.67;;
5696;SDS011;2873;50.966;7.210;2024-02-26T08:30:26;1.70;;;1.60;;
5696;SDS011;2873;50.966;7.210;2024-02-26T08:32:55;2.00;;;1.90;;
5696;SDS011;2873;50.966;7.210;2024-02-26T08:35:20;1.40;;;1.40;;
5696;SDS011;2873;50.966;7.210;2024-02-26T08:37:46;5.60;;;2.10;;
5696;SDS011;2873;50.966;7.210;2024-02-26T08:40:12;2.03;;;1.92;;
5696;SDS011;2873;50.966;7.210;2024-02-26T08:42:38;5.97;;;3.50;;
5696;SDS011;2873;50.966;7.210;2024-02-26T08:45:04;3.17;;;2.60;;
5696;SDS011;2873;50.966;7.210;2024-02-26T08:47:30;1.92;;;1.80;;
5696;SDS011;2873;50.966;7.210;2024-02-26T08:49:56;1.88;;;1.88;;
5696;SDS011;2873;50.966;7.210;2024-02-26T08:52:21;2.37;;;2.13;;
5696;SDS011;2873;50.966;7.210;2024-02-26T08:54:48;2.72;;;2.47;;
5696;SDS011;2873;50.966;7.210;2024-02-26T08:57:14;3.10;;;2.80;;
5696;SDS011;2873;50.966;7.210;2024-02-26T08:59:40;2.50;;;1.70;;
5696;SDS011;2873;50.966;7.210;2024-02-26T09:02:05;4.43;;;1.90;;
5696;SDS011;2873;50.966;7.210;2024-02-26T09:04:31;1.67;;;1.58;;
5696;SDS011;2873;50.966;7.210;2024-02-26T09:06:56;1.70;;;1.60;;
5696;SDS011;2873;50.966;7.210;2024-02-26T09:09:22;1.70;;;1.60;;
5696;SDS011;2873;50.966;7.210;2024-02-26T09:11:50;2.05;;;1.95;;
5696;SDS011;2873;50.966;7.210;2024-02-26T09:14:17;3.07;;;1.90;;
5696;SDS011;2873;50.966;7.210;2024-02-26T09:16:45;1.80;;;1.70;;
5696;SDS011;2873;50.966;7.210;2024-02-26T09:19:13;1.77;;;1.67;;
5696;SDS011;2873;50.966;7.210;2024-02-26T09:21:43;1.88;;;1.77;;
5696;SDS011;2873;50.966;7.210;2024-02-26T09:24:09;1.90;;;1.80;;
5696;SDS011;2873;50.966;7.210;2024-02-26T09:26:35;2.00;;;1.80;;
5696;SDS011;2873;50.966;7.210;2024-02-26T09:29:01;1.80;;;1.70;;
5696;SDS011;2873;50.966;7.210;2024-02-26T09:31:27;1.73;;;1.63;;
5696;SDS011;2873;50.966;7.210;2024-02-26T09:33:52;2.03;;;1.83;;
5696;SDS011;2873;50.966;7.210;2024-02-26T09:36:17;2.17;;;1.97;;
5696;SDS011;2873;50.966;7.210;2024-02-26T09:38:43;2.03;;;1.43;;
5696;SDS011;2873;50.966;7.210;2024-02-26T09:41:12;4.10;;;1.80;;
5696;SDS011;2873;50.966;7.210;2024-02-26T09:43:40;2.20;;;1.83;;
5696;SDS011;2873;50.966;7.210;2024-02-26T09:46:10;2.05;;;1.95;;
5696;SDS011;2873;50.966;7.210;2024-02-26T09:48:35;2.67;;;2.47;;
5696;SDS011;2873;50.966;7.210;2024-02-26T09:51:03;3.38;;;2.63;;
5696;SDS011;2873;50.966;7.210;2024-02-26T09:53:29;2.28;;;2.17;;
5696;SDS011;2873;50.966;7.210;2024-02-26T09:55:57;2.25;;;1.70;;
5696;SDS011;2873;50.966;7.210;2024-02-26T09:58:27;1.90;;;1.80;;
5696;SDS011;2873;50.966;7.210;2024-02-26T10:00:56;2.60;;;2.20;;
5696;SDS011;2873;50.966;7.210;2024-02-26T10:03:25;2.17;;;2.08;;
5696;SDS011;2873;50.966;7.210;2024-02-26T10:05:56;2.05;;;1.95;;
5696;SDS011;2873;50.966;7.210;2024-02-26T10:08:22;2.30;;;2.10;;
5696;SDS011;2873;50.966;7.210;2024-02-26T10:10:48;2.30;;;1.90;;
5696;SDS011;2873;50.966;7.210;2024-02-26T10:13:15;2.20;;;2.00;;
5696;SDS011;2873;50.966;7.210;2024-02-26T10:15:41;2.17;;;2.08;;
5696;SDS011;2873;50.966;7.210;2024-02-26T10:18:06;2.43;;;2.33;;
5696;SDS011;2873;50.966;7.210;2024-02-26T10:20:32;3.08;;;2.78;;
5696;SDS011;2873;50.966;7.210;2024-02-26T10:22:58;6.55;;;2.72;;
5696;SDS011;2873;50.966;7.210;2024-02-26T10:25:27;5.03;;;2.45;;
5696;SDS011;2873;50.966;7.210;2024-02-26T10:27:53;2.60;;;2.50;;
5696;SDS011;2873;50.966;7.210;2024-02-26T10:32:51;3.00;;;2.70;;
5696;SDS011;2873;50.966;7.210;2024-02-26T10:35:17;3.22;;;2.90;;
5696;SDS011;2873;50.966;7.210;2024-02-26T10:37:46;2.90;;;2.70;;
5696;SDS011;2873;50.966;7.210;2024-02-26T10:40:12;2.95;;;2.65;;
5696;SDS011;2873;50.966;7.210;2024-02-26T10:42:39;5.18;;;2.90;;
5696;SDS011;2873;50.966;7.210;2024-02-26T10:45:06;3.10;;;2.60;;
5696;SDS011;2873;50.966;7.210;2024-02-26T10:47:32;2.55;;;2.40;;
5696;SDS011;2873;50.966;7.210;2024-02-26T10:49:59;3.00;;;2.57;;
5696;SDS011;2873;50.966;7.210;2024-02-26T10:52:26;2.80;;;2.60;;
5696;SDS011;2873;50.966;7.210;2024-02-26T10:54:56;2.58;;;2.38;;
5696;SDS011;2873;50.966;7.210;2024-02-26T10:57:24;2.65;;;2.55;;
5696;SDS011;2873;50.966;7.210;2024-02-26T10:59:50;2.90;;;2.30;;
5696;SDS011;2873;50.966;7.210;2024-02-26T11:02:18;2.40;;;2.30;;
5696;SDS011;2873;50.966;7.210;2024-02-26T11:04:45;2.17;;;2.08;;
5696;SDS011;2873;50.966;7.210;2024-02-26T11:07:12;2.70;;;2.30;;
5696;SDS011;2873;50.966;7.210;2024-02-26T11:09:39;4.10;;;2.20;;
5696;SDS011;2873;50.966;7.210;2024-02-26T11:12:10;3.33;;;2.30;;
5696;SDS011;2873;50.966;7.210;2024-02-26T11:14:38;2.50;;;2.40;;
5696;SDS011;2873;50.966;7.210;2024-02-26T11:17:09;2.55;;;2.00;;
5696;SDS011;2873;50.966;7.210;2024-02-26T11:19:36;2.30;;;2.10;;
5696;SDS011;2873;50.966;7.210;2024-02-26T11:22:02;3.35;;;2.20;;
5696;SDS011;2873;50.966;7.210;2024-02-26T11:24:28;2.37;;;2.00;;
5696;SDS011;2873;50.966;7.210;2024-02-26T11:26:54;2.88;;;2.20;;
5696;SDS011;2873;50.966;7.210;2024-02-26T11:29:26;2.10;;;2.00;;
5696;SDS011;2873;50.966;7.210;2024-02-26T11:31:58;2.10;;;2.00;;
5696;SDS011;2873;50.966;7.210;2024-02-26T11:34:25;2.60;;;2.40;;
5696;SDS011;2873;50.966;7.210;2024-02-26T11:36:51;2.50;;;2.40;;
5696;SDS011;2873;50.966;7.210;2024-02-26T11:39:17;2.97;;;2.30;;
5696;SDS011;2873;50.966;7.210;2024-02-26T11:41:43;2.90;;;2.70;;
5696;SDS011;2873;50.966;7.210;2024-02-26T11:44:08;2.60;;;2.40;;
5696;SDS011;2873;50.966;7.210;2024-02-26T11:46:41;2.70;;;2.40;;
5696;SDS011;2873;50.966;7.210;2024-02-26T11:51:52;2.50;;;2.40;;
5696;SDS011;2873;50.966;7.210;2024-02-26T12:02:39;2.50;;;2.30;;
5696;SDS011;2873;50.966;7.210;2024-02-26T12:05:11;3.17;;;2.80;;
5696;SDS011;2873;50.966;7.210;2024-02-26T12:07:43;2.90;;;2.60;;
5696;SDS011;2873;50.966;7.210;2024-02-26T12:13:00;3.90;;;3.40;;
5696;SDS011;2873;50.966;7.210;2024-02-26T12:15:36;2.95;;;2.65;;
5696;SDS011;2873;50.966;7.210;2024-02-26T12:18:03;3.50;;;3.20;;
5696;SDS011;2873;50.966;7.210;2024-02-26T12:20:30;2.90;;;2.70;;
5696;SDS011;2873;50.966;7.210;2024-02-26T12:22:56;3.03;;;2.80;;
5696;SDS011;2873;50.966;7.210;2024-02-26T12:25:23;2.70;;;2.50;;
5696;SDS011;2873;50.966;7.210;2024-02-26T12:27:55;3.53;;;2.70;;
5696;SDS011;2873;50.966;7.210;2024-02-26T12:30:21;3.33;;;3.03;;
5696;SDS011;2873;50.966;7.210;2024-02-26T12:32:48;3.08;;;2.88;;
5696;SDS011;2873;50.966;7.210;2024-02-26T12:35:14;7.35;;;2.80;;
5696;SDS011;2873;50.966;7.210;2024-02-26T12:37:41;2.97;;;2.67;;
5696;SDS011;2873;50.966;7.210;2024-02-26T12:40:08;3.75;;;2.92;;
5696;SDS011;2873;50.966;7.210;2024-02-26T12:42:38;3.60;;;3.15;;
5696;SDS011;2873;50.966;7.210;2024-02-26T12:45:06;3.30;;;3.00;;
5696;SDS011;2873;50.966;7.210;2024-02-26T12:47:39;3.20;;;2.90;;
5696;SDS011;2873;50.966;7.210;2024-02-26T12:50:07;4.72;;;3.03;;
5696;SDS011;2873;50.966;7.210;2024-02-26T12:52:40;3.10;;;2.80;;
5696;SDS011;2873;50.966;7.210;2024-02-26T12:55:08;3.45;;;2.80;;
5696;SDS011;2873;50.966;7.210;2024-02-26T12:57:36;5.63;;;2.97;;
5696;SDS011;2873;50.966;7.210;2024-02-26T13:00:07;3.00;;;2.80;;
5696;SDS011;2873;50.966;7.210;2024-02-26T13:02:35;5.17;;;3.00;;
5696;SDS011;2873;50.966;7.210;2024-02-26T13:05:02;3.50;;;2.90;;
5696;SDS011;2873;50.966;7.210;2024-02-26T13:07:29;3.60;;;3.10;;
5696;SDS011;2873;50.966;7.210;2024-02-26T13:09:54;3.30;;;3.00;;
5696;SDS011;2873;50.966;7.210;2024-02-26T13:12:20;4.80;;;2.90;;
5696;SDS011;2873;50.966;7.210;2024-02-26T13:14:46;5.00;;;3.10;;
5696;SDS011;2873;50.966;7.210;2024-02-26T13:17:12;3.30;;;3.00;;
5696;SDS011;2873;50.966;7.210;2024-02-26T13:19:37;3.53;;;3.20;;
5696;SDS011;2873;50.966;7.210;2024-02-26T13:22:14;4.35;;;3.00;;
5696;SDS011;2873;50.966;7.210;2024-02-26T13:24:39;2.95;;;2.65;;
5696;SDS011;2873;50.966;7.210;2024-02-26T13:27:05;4.60;;;3.80;;
5696;SDS011;2873;50.966;7.210;2024-02-26T13:29:31;3.50;;;3.20;;
5696;SDS011;2873;50.966;7.210;2024-02-26T13:32:00;3.63;;;3.20;;
5696;SDS011;2873;50.966;7.210;2024-02-26T13:34:26;3.55;;;3.20;;
5696;SDS011;2873;50.966;7.210;2024-02-26T13:36:56;4.10;;;3.63;;
5696;SDS011;2873;50.966;7.210;2024-02-26T13:39:25;4.03;;;3.30;;
5696;SDS011;2873;50.966;7.210;2024-02-26T13:41:52;3.90;;;3.40;;
5696;SDS011;2873;50.966;7.210;2024-02-26T13:44:19;8.60;;;4.07;;
5696;SDS011;2873;50.966;7.210;2024-02-26T13:46:45;4.53;;;3.88;;
5696;SDS011;2873;50.966;7.210;2024-02-26T13:49:12;6.07;;;3.70;;
5696;SDS011;2873;50.966;7.210;2024-02-26T13:51:41;4.03;;;3.60;;
5696;SDS011;2873;50.966;7.210;2024-02-26T13:54:07;4.38;;;3.50;;
5696;SDS011;2873;50.966;7.210;2024-02-26T13:56:34;4.50;;;4.10;;
5696;SDS011;2873;50.966;7.210;2024-02-26T13:59:00;6.20;;;3.58;;
5696;SDS011;2873;50.966;7.210;2024-02-26T14:01:26;6.38;;;4.30;;
5696;SDS011;2873;50.966;7.210;2024-02-26T14:03:51;5.50;;;4.10;;
5696;SDS011;2873;50.966;7.210;2024-02-26T14:06:20;6.57;;;4.20;;
5696;SDS011;2873;50.966;7.210;2024-02-26T14:08:45;7.40;;;5.10;;
5696;SDS011;2873;50.966;7.210;2024-02-26T14:11:11;5.10;;;4.60;;
5696;SDS011;2873;50.966;7.210;2024-02-26T14:13:36;4.93;;;4.40;;
5696;SDS011;2873;50.966;7.210;2024-02-26T14:16:02;4.53;;;4.13;;
5696;SDS011;2873;50.966;7.210;2024-02-26T14:18:28;5.07;;;4.57;;
5696;SDS011;2873;50.966;7.210;2024-02-26T14:20:53;7.20;;;4.97;;
5696;SDS011;2873;50.966;7.210;2024-02-26T14:23:19;5.93;;;4.75;;
5696;SDS011;2873;50.966;7.210;2024-02-26T14:25:44;6.03;;;5.10;;
5696;SDS011;2873;50.966;7.210;2024-02-26T14:28:10;5.70;;;4.50;;
5696;SDS011;2873;50.966;7.210;2024-02-26T14:30:36;6.88;;;5.10;;
5696;SDS011;2873;50.966;7.210;2024-02-26T14:33:01;6.93;;;4.90;;
5696;SDS011;2873;50.966;7.210;2024-02-26T14:35:27;6.53;;;5.10;;
5696;SDS011;2873;50.966;7.210;2024-02-26T14:37:53;7.07;;;5.90;;
5696;SDS011;2873;50.966;7.210;2024-02-26T14:40:20;6.88;;;5.50;;
5696;SDS011;2873;50.966;7.210;2024-02-26T14:42:45;6.47;;;5.38;;
5696;SDS011;2873;50.966;7.210;2024-02-26T14:45:11;5.53;;;4.80;;
5696;SDS011;2873;50.966;7.210;2024-02-26T14:47:37;5.70;;;4.93;;
5696;SDS011;2873;50.966;7.210;2024-02-26T14:50:04;7.22;;;5.00;;
5696;SDS011;2873;50.966;7.210;2024-02-26T14:52:30;6.93;;;5.20;;
5696;SDS011;2873;50.966;7.210;2024-02-26T14:54:56;7.23;;;5.50;;
5696;SDS011;2873;50.966;7.210;2024-02-26T14:57:22;6.78;;;5.75;;
5696;SDS011;2873;50.966;7.210;2024-02-26T14:59:50;8.95;;;5.70;;
5696;SDS011;2873;50.966;7.210;2024-02-26T15:02:16;6.70;;;5.20;;
5696;SDS011;2873;50.966;7.210;2024-02-26T15:04:43;5.93;;;5.20;;
5696;SDS011;2873;50.966;7.210;2024-02-26T15:07:09;7.53;;;5.45;;
5696;SDS011;2873;50.966;7.210;2024-02-26T15:09:35;7.30;;;5.30;;
5696;SDS011;2873;50.966;7.210;2024-02-26T15:12:03;7.30;;;5.70;;
5696;SDS011;2873;50.966;7.210;2024-02-26T15:14:31;8.80;;;5.70;;
5696;SDS011;2873;50.966;7.210;2024-02-26T15:16:57;7.05;;;5.90;;
5696;SDS011;2873;50.966;7.210;2024-02-26T15:19:22;8.37;;;5.90;;
5696;SDS011;2873;50.966;7.210;2024-02-26T15:21:48;9.55;;;5.85;;
5696;SDS011;2873;50.966;7.210;2024-02-26T15:24:14;7.35;;;6.20;;
5696;SDS011;2873;50.966;7.210;2024-02-26T15:26:43;7.28;;;5.80;;